Time;durP1;ratioP1;P1;durP2;ratioP2;P2;SDS_P1;SDS_P2;PMS_P1;PMS_P2;Temp;Humidity;BMP_temperature;BMP_pressure;BME280_temperature;BME280_humidity;BME280_pressure;Samples;Min_cycle;Max_cycle;Signal;HPM_P1;HPM_P2
2023/04/22 00:00:19;;;;;;;6.27;4.77;;;7.20;99.90;8.60;96616.00;;;;5127311;27;20205;-68
2023/04/22 00:03:08;;;;;;;5.67;4.67;;;7.20;99.90;8.60;96617.00;;;;5127666;27;20230;-67
2023/04/22 00:05:56;;;;;;;5.83;4.57;;;7.20;99.90;8.60;96611.00;;;;5125132;27;20198;-67
2023/04/22 00:08:45;;;;;;;5.77;4.93;;;7.20;99.90;8.80;96619.00;;;;5101759;28;20661;-67
2023/04/22 00:11:34;;;;;;;5.63;5.13;;;7.20;99.90;8.30;96608.00;;;;5102277;28;20271;-67
2023/04/22 00:14:22;;;;;;;5.13;4.23;;;7.10;99.90;7.90;96612.00;;;;5106154;28;20202;-67
2023/04/22 00:17:13;;;;;;;5.40;4.90;;;7.00;99.90;8.20;96610.00;;;;5104816;28;20268;-69
2023/04/22 00:20:02;;;;;;;5.90;5.17;;;6.90;99.90;8.20;96607.00;;;;5104932;28;20259;-69
2023/04/22 00:22:51;;;;;;;5.77;5.17;;;6.90;99.90;8.10;96611.00;;;;5107538;28;20235;-69
2023/04/22 00:25:40;;;;;;;7.47;5.43;;;7.80;99.90;8.30;96596.00;;;;5106733;28;20205;-68
2023/04/22 00:28:29;;;;;;;8.47;5.57;;;6.80;99.90;8.30;96598.00;;;;5103114;28;20727;-67
2023/04/22 00:31:18;;;;;;;4.87;4.37;;;6.80;99.90;8.20;96605.00;;;;5103931;28;20275;-67
2023/04/22 00:34:08;;;;;;;5.17;4.67;;;6.80;99.90;8.30;96592.00;;;;5100433;28;20195;-68
2023/04/22 00:36:57;;;;;;;5.53;4.83;;;6.80;99.90;8.00;96595.00;;;;5117260;27;20212;-67
2023/04/22 00:39:45;;;;;;;8.37;4.73;;;6.80;99.90;7.80;96590.00;;;;5125734;27;20200;-68
2023/04/22 00:42:34;;;;;;;5.87;5.23;;;6.70;99.90;8.00;96592.00;;;;5127755;27;20229;-68
2023/04/22 00:45:23;;;;;;;4.83;4.37;;;6.60;99.90;8.00;96590.00;;;;5127297;27;20688;-67
2023/04/22 00:48:13;;;;;;;9.40;5.00;;;6.60;99.90;7.80;96587.00;;;;5123932;28;20225;-67
2023/04/22 00:51:04;;;;;;;5.50;4.73;;;6.50;99.90;7.80;96582.00;;;;5126311;28;20201;-69
2023/04/22 00:53:52;;;;;;;7.53;4.57;;;6.50;99.90;7.70;96590.00;;;;5121891;28;20734;-68
2023/04/22 00:56:41;;;;;;;5.67;4.97;;;6.50;99.90;7.60;96583.00;;;;5122108;28;20199;-69
2023/04/22 00:59:30;;;;;;;5.23;4.73;;;6.40;99.90;7.30;96581.00;;;;5120373;28;20238;-69
2023/04/22 01:02:19;;;;;;;7.60;4.50;;;6.30;99.90;7.20;96592.00;;;;5123751;28;21064;-67
2023/04/22 01:05:09;;;;;;;5.37;4.87;;;6.20;99.90;7.40;96588.00;;;;5125533;28;20570;-68
2023/04/22 01:07:59;;;;;;;5.20;4.70;;;6.20;99.90;7.50;96582.00;;;;5126764;28;20704;-67
2023/04/22 01:10:48;;;;;;;4.73;4.17;;;6.10;99.90;7.50;96580.00;;;;5102457;28;20223;-68
2023/04/22 01:13:37;;;;;;;4.73;4.33;;;6.10;99.90;7.50;96578.00;;;;5125723;28;20286;-67
2023/04/22 01:16:28;;;;;;;7.73;4.57;;;6.10;99.90;7.00;96578.00;;;;5121458;28;20190;-68
2023/04/22 01:19:16;;;;;;;5.63;4.57;;;6.00;99.90;6.80;96580.00;;;;5124466;28;20198;-68
2023/04/22 01:22:07;;;;;;;5.80;5.27;;;5.90;99.90;6.90;96594.00;;;;5126376;28;20245;-70
2023/04/22 01:24:58;;;;;;;5.53;4.90;;;5.80;99.90;7.10;96589.00;;;;5124403;28;20198;-71
2023/04/22 01:27:46;;;;;;;5.33;4.57;;;5.80;99.90;7.30;96595.00;;;;5121391;28;20228;-71
2023/04/22 01:30:35;;;;;;;4.80;4.10;;;5.90;99.90;7.40;96595.00;;;;5121323;27;20202;-71
2023/04/22 01:33:24;;;;;;;6.53;4.73;;;5.90;99.90;6.90;96587.00;;;;5124793;27;20308;-71
2023/04/22 01:36:13;;;;;;;5.00;4.17;;;5.80;99.90;6.60;96584.00;;;;5127527;27;20692;-70
2023/04/22 01:39:02;;;;;;;4.37;3.97;;;5.70;99.90;6.40;96587.00;;;;5128093;27;20378;-71
2023/04/22 01:41:52;;;;;;;6.00;4.60;;;5.60;99.90;6.40;96585.00;;;;5128691;27;20230;-69
2023/04/22 01:44:41;;;;;;;5.57;4.63;;;5.50;99.90;6.40;96585.00;;;;5129733;27;20323;-69
2023/04/22 01:47:30;;;;;;;4.30;3.83;;;5.40;99.90;6.80;96586.00;;;;5130139;27;20205;-69
2023/04/22 01:50:19;;;;;;;7.03;4.43;;;5.50;99.90;6.50;96579.00;;;;5123479;27;20194;-69
2023/04/22 01:53:08;;;;;;;7.77;4.50;;;5.50;99.90;6.30;96576.00;;;;5126733;27;20736;-70
2023/04/22 01:55:57;;;;;;;5.37;4.43;;;5.40;99.90;6.50;96575.00;;;;5123444;27;20657;-70
2023/04/22 01:58:47;;;;;;;9.70;6.17;;;5.40;99.90;6.40;96576.00;;;;5126681;27;20610;-70
2023/04/22 02:01:36;;;;;;;4.90;4.40;;;5.40;99.90;6.40;96578.00;;;;5127820;27;20218;-69
2023/04/22 02:04:25;;;;;;;5.73;4.80;;;5.30;99.90;6.30;96573.00;;;;5129510;27;20198;-69
2023/04/22 02:07:13;;;;;;;4.80;4.30;;;5.30;99.90;6.60;96577.00;;;;5130054;27;20201;-70
2023/04/22 02:10:03;;;;;;;7.17;5.57;;;5.30;99.90;6.80;96576.00;;;;5130425;27;20302;-70
2023/04/22 02:12:51;;;;;;;5.57;5.07;;;5.30;99.90;6.80;96575.00;;;;5126296;27;20282;-69
2023/04/22 02:15:42;;;;;;;6.07;5.13;;;5.30;99.90;6.50;96572.00;;;;5123348;27;20233;-70
2023/04/22 02:18:30;;;;;;;8.90;4.30;;;5.30;99.90;6.40;96566.00;;;;5129534;27;20213;-70
2023/04/22 02:21:19;;;;;;;6.23;5.00;;;5.30;99.90;6.20;96568.00;;;;5127391;27;20194;-70
2023/04/22 02:24:08;;;;;;;6.23;4.00;;;5.20;99.90;6.20;96560.00;;;;5129460;27;20194;-69
2023/04/22 02:26:57;;;;;;;6.10;5.10;;;5.10;99.90;5.90;96573.00;;;;5125946;27;20282;-69
2023/04/22 02:29:46;;;;;;;6.13;4.37;;;5.00;99.90;5.90;96566.00;;;;5129183;27;20202;-69
2023/04/22 02:32:38;;;;;;;5.27;4.60;;;4.90;99.90;5.80;96565.00;;;;5123803;27;20608;-69
2023/04/22 02:35:27;;;;;;;6.80;5.00;;;4.80;99.90;6.00;96568.00;;;;5128328;27;20695;-68
2023/04/22 02:38:16;;;;;;;5.33;4.57;;;4.80;99.90;6.30;96570.00;;;;5123369;27;20251;-68
2023/04/22 02:41:05;;;;;;;7.87;4.67;;;4.90;99.90;6.40;96566.00;;;;5128668;27;20278;-68
2023/04/22 02:43:54;;;;;;;8.27;5.07;;;4.90;99.90;6.50;96565.00;;;;5128094;27;20193;-68
2023/04/22 02:46:42;;;;;;;6.33;5.00;;;5.00;99.90;6.50;96576.00;;;;5128773;27;20221;-68
2023/04/22 02:49:32;;;;;;;6.17;5.40;;;5.00;99.90;6.30;96570.00;;;;5127258;27;20251;-68
2023/04/22 02:52:21;;;;;;;9.30;6.93;;;5.00;99.90;6.00;96567.00;;;;5127265;27;20719;-68
2023/04/22 02:55:10;;;;;;;7.47;5.67;;;4.90;99.90;5.90;96567.00;;;;5123506;27;20877;-68
2023/04/22 02:57:59;;;;;;;6.03;4.73;;;4.80;99.90;5.50;96565.00;;;;5124607;27;20197;-69
2023/04/22 03:00:48;;;;;;;5.93;4.70;;;4.80;99.90;5.40;96572.00;;;;5124665;27;20198;-69
2023/04/22 03:03:36;;;;;;;4.10;3.47;;;4.60;99.90;5.40;96562.00;;;;5127679;27;20190;-69
2023/04/22 03:06:27;;;;;;;7.07;4.73;;;4.60;99.90;5.40;96560.00;;;;5128311;27;20197;-68
2023/04/22 03:09:16;;;;;;;5.13;4.43;;;4.50;99.90;5.30;96568.00;;;;5127114;27;20277;-67
2023/04/22 03:12:05;;;;;;;15.07;5.03;;;4.40;99.90;5.60;96569.00;;;;5125731;27;20221;-68
2023/04/22 03:14:54;;;;;;;8.43;4.47;;;4.50;99.90;5.50;96562.00;;;;5122106;27;20213;-69
2023/04/22 03:17:42;;;;;;;7.13;6.17;;;4.50;99.90;5.50;96569.00;;;;5124878;27;20420;-68
2023/04/22 03:20:31;;;;;;;6.57;5.70;;;4.50;99.90;5.40;96567.00;;;;5118934;27;20202;-70
2023/04/22 03:23:21;;;;;;;5.67;5.17;;;4.50;99.90;5.60;96567.00;;;;5121289;27;20234;-68
2023/04/22 03:26:10;;;;;;;5.27;4.77;;;4.50;99.90;5.70;96566.00;;;;5127321;27;20424;-67
2023/04/22 03:28:59;;;;;;;7.57;5.20;;;4.50;99.90;5.60;96567.00;;;;5122408;27;20201;-66
2023/04/22 03:31:48;;;;;;;7.53;6.53;;;4.50;99.90;5.80;96561.00;;;;5132232;27;20689;-67
2023/04/22 03:34:36;;;;;;;7.83;6.83;;;4.60;99.90;5.80;96563.00;;;;5129722;27;20981;-67
2023/04/22 03:37:26;;;;;;;7.63;5.60;;;4.60;99.90;5.70;96570.00;;;;5122420;27;20805;-67
2023/04/22 03:40:17;;;;;;;7.40;5.93;;;4.60;99.90;5.60;96560.00;;;;5125562;27;20681;-67
2023/04/22 03:43:05;;;;;;;7.80;6.57;;;4.50;99.90;5.70;96568.00;;;;5121512;27;20214;-67
2023/04/22 03:45:54;;;;;;;6.17;5.57;;;4.50;99.90;5.50;96559.00;;;;5123670;27;20246;-66
2023/04/22 03:48:43;;;;;;;6.50;5.20;;;4.50;99.90;5.50;96567.00;;;;5128154;27;20420;-67
2023/04/22 03:51:32;;;;;;;10.60;4.90;;;4.40;99.90;5.40;96563.00;;;;5126128;27;20236;-66
2023/04/22 03:54:20;;;;;;;8.47;5.13;;;4.40;99.90;5.30;96573.00;;;;5122289;27;20222;-66
2023/04/22 03:57:11;;;;;;;6.37;5.77;;;4.40;99.90;5.30;96574.00;;;;5123733;27;20617;-68
2023/04/22 03:59:59;;;;;;;7.37;6.07;;;4.30;99.90;5.50;96576.00;;;;5124094;27;20216;-68
2023/04/22 04:02:48;;;;;;;6.97;5.57;;;4.30;99.90;5.60;96564.00;;;;5120538;27;20531;-68
2023/04/22 04:05:37;;;;;;;6.83;5.93;;;4.30;99.90;5.20;96560.00;;;;5121920;27;20190;-68
2023/04/22 04:08:26;;;;;;;8.07;5.10;;;4.30;99.90;5.00;96556.00;;;;5103529;28;20432;-68
2023/04/22 04:11:15;;;;;;;8.50;5.10;;;4.20;99.90;5.10;96556.00;;;;5103263;28;20433;-68
2023/04/22 04:14:05;;;;;;;6.83;5.23;;;4.10;99.90;5.10;96560.00;;;;5106158;28;20275;-68
2023/04/22 04:16:53;;;;;;;6.50;5.90;;;4.10;99.90;5.20;96572.00;;;;5100631;28;20474;-68
2023/04/22 04:19:42;;;;;;;8.90;4.43;;;4.10;99.90;4.80;96567.00;;;;5100018;28;20433;-70
2023/04/22 04:22:32;;;;;;;4.63;3.87;;;4.00;99.90;4.40;96557.00;;;;5104786;28;22079;-70
2023/04/22 04:25:21;;;;;;;5.97;4.40;;;4.00;99.90;4.40;96564.00;;;;5104987;28;20860;-72
2023/04/22 04:28:12;;;;;;;6.73;5.57;;;3.90;99.90;4.80;96561.00;;;;5106309;28;20424;-68
2023/04/22 04:31:02;;;;;;;6.13;5.33;;;3.90;99.90;4.90;96564.00;;;;5104013;28;20432;-66
2023/04/22 04:33:51;;;;;;;5.37;4.63;;;3.90;99.90;5.40;96567.00;;;;5102343;28;20544;-67
2023/04/22 04:36:40;;;;;;;6.43;4.83;;;4.00;99.90;5.40;96560.00;;;;5105466;28;20432;-69
2023/04/22 04:39:29;;;;;;;7.23;5.77;;;4.10;99.90;5.00;96560.00;;;;5105804;28;20405;-70
2023/04/22 04:42:18;;;;;;;6.53;5.27;;;4.10;99.90;5.00;96571.00;;;;5102931;28;20445;-69
2023/04/22 04:45:08;;;;;;;7.13;4.97;;;4.00;99.90;5.20;96566.00;;;;5105230;28;20425;-67
2023/04/22 04:47:59;;;;;;;10.40;5.80;;;4.10;99.90;5.40;96570.00;;;;5106807;28;20420;-68
2023/04/22 04:50:49;;;;;;;9.67;5.77;;;4.20;99.90;5.70;96576.00;;;;5099370;28;20977;-67
2023/04/22 04:53:37;;;;;;;7.67;5.50;;;4.30;99.90;5.90;96572.00;;;;5108364;28;20449;-67
2023/04/22 04:56:26;;;;;;;6.00;5.33;;;4.40;99.90;5.80;96570.00;;;;5119571;28;20415;-70
2023/04/22 04:59:15;;;;;;;8.43;5.37;;;4.50;99.90;5.60;96581.00;;;;5102256;28;20534;-68
2023/04/22 05:02:04;;;;;;;7.20;5.47;;;4.50;99.90;5.30;96584.00;;;;5105296;28;20218;-69
2023/04/22 05:04:54;;;;;;;7.67;5.27;;;4.50;99.90;5.40;96589.00;;;;5101764;28;20203;-74
2023/04/22 05:07:42;;;;;;;5.30;4.80;;;4.40;99.90;5.30;96573.00;;;;5104590;28;20418;-73
2023/04/22 05:10:31;;;;;;;6.97;4.57;;;4.50;99.90;5.30;96581.00;;;;5112022;28;20428;-70
2023/04/22 05:13:21;;;;;;;8.57;5.47;;;4.50;99.90;5.90;96591.00;;;;5108047;28;20634;-72
2023/04/22 05:16:10;;;;;;;7.40;5.47;;;4.60;99.90;6.30;96580.00;;;;5104671;28;20424;-69
2023/04/22 05:18:58;;;;;;;8.03;5.80;;;4.80;99.90;6.70;96589.00;;;;5122492;27;20194;-70
2023/04/22 05:21:48;;;;;;;6.00;5.50;;;5.00;99.90;6.20;96583.00;;;;5131696;27;20452;-66
2023/04/22 05:24:37;;;;;;;6.07;5.47;;;5.10;99.90;6.20;96575.00;;;;5126435;27;20201;-75
2023/04/22 05:27:26;;;;;;;7.13;5.10;;;5.00;99.90;6.70;96580.00;;;;5120235;27;20628;-74
2023/04/22 05:30:15;;;;;;;15.60;7.27;;;5.20;99.90;6.70;96583.00;;;;5110123;27;20206;-66
2023/04/22 05:33:04;;;;;;;11.13;7.27;;;5.30;99.90;7.10;96583.00;;;;5111570;27;20225;-70
2023/04/22 05:35:52;;;;;;;7.13;6.43;;;5.40;99.90;6.90;96582.00;;;;5110588;27;20209;-68
2023/04/22 05:38:42;;;;;;;13.13;9.03;;;5.50;99.90;7.20;96588.00;;;;5109764;27;20834;-69
2023/04/22 05:41:31;;;;;;;10.87;7.77;;;5.70;99.90;7.50;96587.00;;;;5109132;27;20244;-70
2023/04/22 05:44:20;;;;;;;7.30;6.53;;;5.80;99.90;7.60;96584.00;;;;5110858;27;20206;-69
2023/04/22 05:47:08;;;;;;;7.13;6.43;;;6.00;99.90;7.50;96583.00;;;;5111601;27;20232;-67
2023/04/22 05:49:57;;;;;;;10.93;7.10;;;6.10;99.90;7.60;96587.00;;;;5110251;27;20925;-69
2023/04/22 05:52:46;;;;;;;12.60;8.50;;;6.20;99.90;8.20;96590.00;;;;5110622;27;20704;-70
2023/04/22 05:55:36;;;;;;;10.70;8.17;;;6.40;99.90;8.50;96585.00;;;;5110790;27;20275;-70
2023/04/22 05:58:25;;;;;;;11.47;10.27;;;6.60;99.90;8.80;96591.00;;;;5108712;27;20210;-70
2023/04/22 06:01:14;;;;;;;9.03;7.63;;;6.80;99.90;8.50;96578.00;;;;5108926;28;20225;-68
2023/04/22 06:04:03;;;;;;;9.57;8.57;;;7.10;99.90;9.00;96582.00;;;;5108059;27;20199;-69
2023/04/22 06:06:53;;;;;;;11.33;9.07;;;7.20;99.90;9.20;96588.00;;;;5108938;28;20209;-69
2023/04/22 06:09:42;;;;;;;11.57;8.20;;;7.40;99.90;9.40;96599.00;;;;5107175;28;20195;-68
2023/04/22 06:12:33;;;;;;;11.03;8.07;;;7.60;99.90;9.40;96592.00;;;;5114675;27;20229;-70
2023/04/22 06:15:21;;;;;;;10.63;8.07;;;7.70;99.90;9.50;96596.00;;;;5108447;27;20226;-69
2023/04/22 06:18:10;;;;;;;11.17;8.20;;;7.90;99.90;9.40;96589.00;;;;5109754;28;20214;-68
2023/04/22 06:20:59;;;;;;;11.20;8.27;;;8.00;99.90;10.00;96595.00;;;;5109134;28;20210;-69
2023/04/22 06:23:48;;;;;;;14.30;8.97;;;8.10;99.90;10.60;96590.00;;;;5109761;28;20198;-69
2023/04/22 06:26:37;;;;;;;11.20;9.00;;;8.40;99.90;10.80;96590.00;;;;5108122;27;20197;-69
2023/04/22 06:29:27;;;;;;;16.57;10.40;;;8.60;99.90;10.80;96590.00;;;;5110558;27;20202;-69
2023/04/22 06:32:15;;;;;;;14.33;9.00;;;8.80;99.90;11.20;96588.00;;;;5111958;27;20222;-70
2023/04/22 06:35:05;;;;;;;14.90;9.27;;;9.00;99.90;11.30;96592.00;;;;5108370;27;20233;-70
2023/04/22 06:37:54;;;;;;;13.17;9.13;;;9.20;99.90;11.50;96592.00;;;;5109771;28;20257;-71
2023/04/22 06:40:43;;;;;;;14.23;9.03;;;9.40;99.90;11.70;96596.00;;;;5121867;28;20197;-71
2023/04/22 06:43:31;;;;;;;16.23;9.63;;;9.60;99.90;11.90;96597.00;;;;5127468;28;20209;-71
2023/04/22 06:46:21;;;;;;;15.73;9.87;;;9.70;99.90;12.00;96590.00;;;;5127937;28;20535;-71
2023/04/22 06:49:10;;;;;;;13.60;9.83;;;9.90;99.90;12.10;96597.00;;;;5124137;27;20202;-70
2023/04/22 06:51:59;;;;;;;20.13;10.60;;;10.00;99.90;12.50;96583.00;;;;5100616;28;20279;-70
2023/04/22 06:54:47;;;;;;;16.47;8.20;;;10.20;99.90;12.40;96586.00;;;;5100944;28;20254;-70
2023/04/22 06:57:36;;;;;;;14.03;9.47;;;10.40;99.90;12.80;96598.00;;;;5106714;28;20207;-70
2023/04/22 07:00:38;;;;;;;15.53;9.17;;;10.60;99.90;13.00;96596.00;;;;5110526;27;20679;-70
2023/04/22 07:03:27;;;;;;;14.97;9.77;;;10.70;99.90;13.20;96594.00;;;;5119704;27;20252;-70
2023/04/22 07:06:16;;;;;;;11.27;8.60;;;10.90;99.90;13.50;96598.00;;;;5120953;27;20198;-70
2023/04/22 07:09:04;;;;;;;14.73;9.53;;;11.10;99.90;13.50;96596.00;;;;5122660;27;20218;-70
2023/04/22 07:11:53;;;;;;;10.07;8.10;;;11.30;99.90;13.80;96588.00;;;;5115680;27;20868;-71
2023/04/22 07:14:44;;;;;;;12.40;9.23;;;11.60;99.90;13.90;96577.00;;;;5122253;27;20523;-70
2023/04/22 07:17:34;;;;;;;19.47;9.60;;;11.60;99.90;14.10;96576.00;;;;5120608;27;20279;-70
2023/04/22 07:20:23;;;;;;;15.07;9.37;;;11.80;99.90;14.40;96582.00;;;;5122173;27;20219;-70
2023/04/22 07:23:11;;;;;;;11.83;8.57;;;12.10;99.90;14.50;96583.00;;;;5120162;27;20222;-70
2023/04/22 07:26:00;;;;;;;10.63;9.10;;;12.20;99.90;14.80;96576.00;;;;5122258;27;20228;-70
2023/04/22 07:28:49;;;;;;;10.33;7.87;;;12.40;99.90;15.00;96571.00;;;;5110008;28;20222;-70
2023/04/22 07:31:38;;;;;;;10.80;8.70;;;12.60;99.90;15.00;96578.00;;;;5118946;27;20217;-69
2023/04/22 07:34:28;;;;;;;10.57;7.83;;;12.70;99.90;15.20;96579.00;;;;5128945;27;20206;-69
2023/04/22 07:37:16;;;;;;;11.97;8.33;;;12.90;99.90;15.40;96576.00;;;;5123052;27;20195;-69
2023/04/22 07:40:10;;;;;;;9.70;8.33;;;13.00;99.90;15.50;96576.00;;;;5117177;27;20275;-71
2023/04/22 07:43:00;;;;;;;11.23;7.73;;;13.10;99.90;15.50;96568.00;;;;5121444;27;20240;-70
2023/04/22 07:45:48;;;;;;;11.27;8.40;;;13.20;99.90;15.60;96567.00;;;;5118988;27;20200;-70
2023/04/22 07:48:37;;;;;;;9.20;7.07;;;13.40;99.90;16.00;96576.00;;;;5119578;27;20278;-70
2023/04/22 07:51:28;;;;;;;12.50;7.63;;;13.50;99.90;16.10;96567.00;;;;5120044;27;20229;-70
2023/04/22 07:54:17;;;;;;;10.53;7.97;;;13.70;99.90;16.30;96570.00;;;;5124493;27;20613;-70
2023/04/22 07:57:05;;;;;;;11.90;6.77;;;13.80;99.90;16.50;96570.00;;;;5111860;27;20670;-70
2023/04/22 07:59:54;;;;;;;9.73;6.37;;;14.00;99.90;16.80;96570.00;;;;5108705;27;20218;-70
2023/04/22 08:02:43;;;;;;;12.20;7.70;;;14.20;99.90;16.90;96573.00;;;;5116280;27;20222;-71
2023/04/22 08:05:32;;;;;;;11.73;6.20;;;14.40;99.90;17.10;96571.00;;;;5109849;28;20305;-70
2023/04/22 08:08:22;;;;;;;8.73;6.13;;;14.60;99.90;17.30;96573.00;;;;5122679;27;20283;-70
2023/04/22 08:11:10;;;;;;;8.13;5.33;;;14.80;99.90;17.50;96567.00;;;;5110978;28;20268;-70
2023/04/22 08:13:59;;;;;;;9.23;5.67;;;14.90;99.90;17.60;96581.00;;;;5108853;27;20226;-70
2023/04/22 08:16:48;;;;;;;7.27;5.13;;;15.10;99.90;17.70;96584.00;;;;5112189;27;20670;-71
2023/04/22 08:19:37;;;;;;;5.43;4.70;;;15.20;99.90;17.80;96570.00;;;;5106995;27;20252;-71
2023/04/22 08:22:26;;;;;;;8.97;5.90;;;15.40;99.90;18.00;96581.00;;;;5104628;27;20238;-71
2023/04/22 08:25:16;;;;;;;7.13;5.50;;;15.50;99.90;18.20;96573.00;;;;5096571;27;20583;-70
2023/04/22 08:28:05;;;;;;;9.87;5.27;;;15.70;99.90;18.50;96579.00;;;;5082773;27;20210;-70
2023/04/22 08:30:54;;;;;;;12.93;5.67;;;15.80;99.90;18.40;96569.00;;;;5084095;27;22125;-70
2023/04/22 08:33:42;;;;;;;5.60;5.10;;;16.00;99.90;18.30;96569.00;;;;5080088;27;20195;-69
2023/04/22 08:36:31;;;;;;;10.40;5.47;;;16.10;99.90;18.70;96575.00;;;;5084694;27;20211;-69
2023/04/22 08:39:20;;;;;;;5.87;4.57;;;16.20;99.90;19.00;96572.00;;;;5083026;27;20256;-70
2023/04/22 08:42:11;;;;;;;4.87;4.27;;;16.40;99.90;18.60;96560.00;;;;5092795;27;20233;-69
2023/04/22 08:45:00;;;;;;;9.30;4.47;;;16.40;99.90;18.90;96567.00;;;;5082189;28;20233;-70
2023/04/22 08:47:49;;;;;;;7.30;4.67;;;16.50;99.90;19.10;96568.00;;;;5083499;27;20682;-69
2023/04/22 08:50:39;;;;;;;7.33;4.47;;;16.60;99.90;19.50;96565.00;;;;5081433;27;20230;-69
2023/04/22 08:53:28;;;;;;;7.53;5.27;;;16.80;99.90;19.60;96564.00;;;;5088423;27;20222;-69
2023/04/22 08:56:16;;;;;;;6.40;5.30;;;17.00;99.90;19.90;96563.00;;;;5085191;27;20198;-69
2023/04/22 08:59:07;;;;;;;5.07;4.67;;;17.20;99.90;20.00;96560.00;;;;5099742;27;20218;-69
2023/04/22 09:01:57;;;;;;;6.20;4.87;;;17.30;99.90;20.10;96560.00;;;;5103583;28;20223;-70
2023/04/22 09:04:51;;;;;;;7.53;4.47;;;17.40;99.90;20.00;96560.00;;;;5103391;28;20205;-69
2023/04/22 09:07:39;;;;;;;6.50;4.60;;;17.50;99.90;20.40;96558.00;;;;5104732;28;20198;-69
2023/04/22 09:10:29;;;;;;;5.30;4.43;;;17.60;99.90;20.30;96549.00;;;;5107553;28;20226;-69
2023/04/22 09:13:20;;;;;;;6.37;5.20;;;17.80;99.90;20.40;96555.00;;;;5102904;28;20229;-69
2023/04/22 09:16:10;;;;;;;7.53;5.10;;;17.90;99.90;20.30;96557.00;;;;5101417;27;20198;-71
2023/04/22 09:18:59;;;;;;;5.70;4.53;;;18.00;99.90;19.70;96550.00;;;;5109771;27;20244;-71
2023/04/22 09:21:48;;;;;;;7.50;5.13;;;17.90;99.60;20.70;96555.00;;;;5108177;27;20273;-71
2023/04/22 09:24:42;;;;;;;4.67;4.20;;;18.00;99.90;20.80;96553.00;;;;5114316;27;20204;-71
2023/04/22 09:27:32;;;;;;;5.50;4.03;;;18.20;99.20;21.30;96552.00;;;;5107093;27;20207;-71
2023/04/22 09:30:25;;;;;;;4.30;3.87;;;18.50;98.40;21.30;96550.00;;;;5095419;28;20223;-70
2023/04/22 09:33:16;;;;;;;5.03;3.73;;;18.60;97.70;20.70;96538.00;;;;5105544;28;20232;-70
2023/04/22 09:36:09;;;;;;;3.87;3.57;;;18.70;96.90;19.50;96534.00;;;;5103693;27;20203;-71
2023/04/22 09:39:00;;;;;;;4.77;3.77;;;18.50;94.40;20.90;96540.00;;;;5103736;27;20206;-72
2023/04/22 09:41:55;;;;;;;5.53;3.47;;;18.50;96.70;20.20;96545.00;;;;5106908;28;20229;-70
2023/04/22 09:44:45;;;;;;;4.27;3.87;;;18.60;95.40;21.10;96536.00;;;;5094785;28;20187;-69
2023/04/22 09:47:36;;;;;;;5.47;3.87;;;18.70;95.90;21.30;96540.00;;;;5101261;28;20198;-67
2023/04/22 09:50:28;;;;;;;7.07;3.93;;;18.90;94.80;21.10;96537.00;;;;5098747;28;20299;-68
2023/04/22 09:53:18;;;;;;;4.00;3.47;;;19.00;93.60;21.80;96531.00;;;;5105234;27;20773;-69
2023/04/22 09:56:08;;;;;;;5.63;3.13;;;19.20;94.20;22.20;96525.00;;;;5101926;27;20198;-69
2023/04/22 09:58:56;;;;;;;5.10;3.57;;;19.40;92.40;22.00;96516.00;;;;5100675;27;20754;-69
2023/04/22 10:01:45;;;;;;;7.97;6.23;;;19.50;93.00;22.40;96516.00;;;;5102732;28;20222;-71
2023/04/22 10:04:34;;;;;;;4.80;3.67;;;19.60;92.70;21.50;96516.00;;;;5095030;28;20195;-68
2023/04/22 10:07:30;;;;;;;6.73;3.87;;;19.60;90.80;22.40;96515.00;;;;5098145;28;20266;-68
2023/04/22 10:10:18;;;;;;;4.03;3.60;;;19.80;91.30;22.40;96509.00;;;;5098807;28;20218;-68
2023/04/22 10:13:08;;;;;;;5.10;3.40;;;20.00;90.60;22.10;96505.00;;;;5103015;28;20270;-69
2023/04/22 10:15:57;;;;;;;4.07;3.70;;;20.00;91.10;22.80;96500.00;;;;5099331;28;20210;-69
2023/04/22 10:18:47;;;;;;;4.10;3.67;;;20.20;90.50;22.80;96503.00;;;;5095509;28;20203;-69
2023/04/22 10:21:37;;;;;;;5.77;3.67;;;20.30;89.10;23.10;96495.00;;;;5098331;27;20227;-69
2023/04/22 10:24:29;;;;;;;4.43;4.03;;;20.50;88.70;22.90;96500.00;;;;5106262;28;20191;-69
2023/04/22 10:27:22;;;;;;;4.60;3.37;;;20.70;84.70;23.80;96490.00;;;;5098081;28;20202;-69
2023/04/22 10:30:12;;;;;;;4.10;3.27;;;20.90;85.60;24.30;96483.00;;;;5094322;28;20248;-70
2023/04/22 10:33:38;;;;;;;4.67;3.70;;;21.20;84.10;22.30;96495.00;;;;5104675;27;20218;-70
2023/04/22 10:36:27;;;;;;;3.70;3.27;;;21.20;85.30;23.40;96496.00;;;;5101201;28;20208;-70
2023/04/22 10:39:17;;;;;;;4.47;3.23;;;21.20;84.30;22.10;96472.00;;;;5099725;28;20289;-69
2023/04/22 10:42:10;;;;;;;3.37;2.83;;;20.80;80.40;24.00;96480.00;;;;5098588;28;20275;-68
2023/04/22 10:45:02;;;;;;;4.40;3.30;;;21.00;82.50;24.80;96477.00;;;;5100384;28;20248;-69
2023/04/22 10:47:51;;;;;;;4.40;3.70;;;21.30;85.20;25.00;96478.00;;;;5101168;28;20693;-69
2023/04/22 10:50:40;;;;;;;4.20;3.58;;;21.70;85.80;21.90;96467.00;;;;5098777;28;20406;-75
2023/04/22 10:53:36;;;;;;;4.03;3.60;;;21.50;78.10;24.40;96480.00;;;;5097320;28;20406;-68
2023/04/22 10:56:25;;;;;;;3.50;3.20;;;21.50;83.60;23.90;96483.00;;;;5100794;28;20238;-70
2023/04/22 10:59:18;;;;;;;5.53;3.90;;;21.70;78.90;24.00;96479.00;;;;5098341;28;20407;-70
2023/04/22 11:02:08;;;;;;;4.30;3.70;;;21.70;78.70;23.60;96471.00;;;;5095967;28;20425;-74
2023/04/22 11:05:22;;;;;;;4.97;4.00;;;21.70;79.10;23.50;96472.00;;;;5101400;28;20411;-68
2023/04/22 11:08:19;;;;;;;5.97;3.80;;;21.70;77.50;24.90;96466.00;;;;5082840;28;20511;-70
2023/04/22 11:11:12;;;;;;;4.45;3.50;;;21.80;79.00;24.00;96472.00;;;;5097170;28;20785;-74
2023/04/22 11:14:01;;;;;;;3.92;3.53;;;22.00;79.00;20.50;96454.00;;;;5096326;28;20393;-76
2023/04/22 11:16:52;;;;;;;4.18;3.78;;;21.30;73.90;21.70;96448.00;;;;5099889;28;20380;-75
2023/04/22 11:19:40;;;;;;;3.78;3.42;;;21.10;75.30;20.70;96430.00;;;;5101074;28;20589;-72
2023/04/22 11:22:35;;;;;;;4.55;3.42;;;20.60;74.40;21.80;96451.00;;;;5096337;28;20469;-73
2023/04/22 11:25:26;;;;;;;4.32;3.45;;;20.30;77.80;23.20;96447.00;;;;5105114;28;20397;-67
2023/04/22 11:28:14;;;;;;;3.97;3.25;;;20.70;79.90;23.10;96454.00;;;;5105334;28;20388;-72
2023/04/22 11:31:06;;;;;;;3.97;3.58;;;20.80;78.60;24.60;96469.00;;;;5096291;28;20783;-67
2023/04/22 11:33:59;;;;;;;3.60;3.28;;;21.30;78.10;23.70;96464.00;;;;5094738;28;20887;-66
2023/04/22 11:36:48;;;;;;;3.58;3.28;;;21.60;75.00;24.20;96451.00;;;;5080641;28;20920;-68
2023/04/22 11:39:37;;;;;;;3.60;3.23;;;22.00;74.80;24.60;96452.00;;;;5104426;28;20471;-69
2023/04/22 11:42:29;;;;;;;3.53;3.20;;;22.20;73.80;22.70;96449.00;;;;5088408;28;20461;-71
2023/04/22 11:45:18;;;;;;;3.70;3.40;;;22.30;70.10;22.30;96473.00;;;;5102410;28;20385;-76
2023/04/22 11:48:12;;;;;;;4.20;3.40;;;21.80;73.40;21.90;96457.00;;;;5108114;28;20408;-72
2023/04/22 11:51:11;;;;;;;4.50;3.30;;;21.50;71.80;22.20;96450.00;;;;5102682;28;20410;-66
2023/04/22 11:54:00;;;;;;;4.63;3.53;;;21.30;74.00;23.40;96450.00;;;;5106057;28;20400;-67
2023/04/22 11:56:49;;;;;;;4.40;3.63;;;21.40;72.40;22.60;96430.00;;;;5104934;28;20386;-76
2023/04/22 11:59:38;;;;;;;3.77;3.37;;;21.40;73.10;22.60;96432.00;;;;5098042;28;20568;-66
2023/04/22 12:02:27;;;;;;;3.85;3.42;;;21.10;73.30;25.10;96447.00;;;;5100796;28;20396;-67
2023/04/22 12:05:15;;;;;;;4.05;3.65;;;22.60;79.60;25.10;96448.00;;;;5104517;28;20421;-70
2023/04/22 12:08:08;;;;;;;3.60;3.30;;;22.00;77.30;25.00;96443.00;;;;5103555;28;20389;-67
2023/04/22 12:11:00;;;;;;;4.13;3.33;;;22.20;71.10;24.90;96436.00;;;;5106639;28;20396;-68
2023/04/22 12:13:50;;;;;;;2.90;2.70;;;22.60;71.20;26.60;96441.00;;;;5109076;28;20407;-68
2023/04/22 12:16:43;;;;;;;3.13;2.93;;;23.00;72.70;27.10;96439.00;;;;5108512;28;20199;-68
2023/04/22 12:19:31;;;;;;;5.10;2.87;;;23.50;71.80;27.80;96448.00;;;;5107266;28;20262;-68
2023/04/22 12:22:26;;;;;;;3.07;2.87;;;24.00;70.50;27.60;96438.00;;;;5108760;28;20226;-71
2023/04/22 12:25:19;;;;;;;3.50;2.73;;;24.40;69.60;26.40;96430.00;;;;5098444;28;20236;-69
2023/04/22 12:28:08;;;;;;;3.63;3.33;;;24.40;66.30;23.90;96420.00;;;;5097916;28;20290;-76
2023/04/22 12:30:56;;;;;;;3.50;3.20;;;24.00;67.50;24.40;96426.00;;;;5099605;28;20189;-67
2023/04/22 12:33:46;;;;;;;3.57;3.27;;;23.60;68.20;26.10;96431.00;;;;5110307;28;20203;-68
2023/04/22 12:36:34;;;;;;;2.60;2.33;;;23.70;64.50;25.70;96436.00;;;;5102926;28;20198;-69
2023/04/22 12:39:23;;;;;;;5.00;3.43;;;23.90;70.30;25.80;96452.00;;;;5102284;28;20208;-67